createdAt,value
2023-01-18T00:02:19.540Z,9.48
2023-01-18T00:04:46.301Z,9.58
2023-01-18T00:07:12.982Z,9.60
2023-01-18T00:09:39.652Z,9.48
2023-01-18T00:12:06.736Z,9.53
2023-01-18T00:14:33.421Z,9.61
2023-01-18T00:17:00.128Z,9.56
2023-01-18T00:19:28.200Z,9.66
2023-01-18T00:21:54.853Z,9.64
2023-01-18T00:24:21.553Z,9.63
2023-01-18T00:26:48.391Z,9.48
2023-01-18T00:29:15.305Z,9.57
2023-01-18T00:31:42.026Z,9.69
2023-01-18T00:34:08.870Z,9.55
2023-01-18T00:36:37.114Z,9.59
2023-01-18T00:39:04.924Z,9.44
2023-01-18T00:41:31.623Z,9.56
2023-01-18T00:43:58.321Z,9.66
2023-01-18T00:46:26.842Z,9.61
2023-01-18T00:48:55.057Z,9.24
2023-01-18T00:51:24.127Z,9.51
2023-01-18T00:53:52.330Z,9.58
2023-01-18T00:56:21.277Z,9.66
2023-01-18T00:58:48.176Z,9.68
2023-01-18T01:01:15.257Z,9.75
2023-01-18T01:03:42.054Z,9.74
2023-01-18T01:06:14.625Z,9.86
2023-01-18T01:08:41.319Z,9.94
2023-01-18T01:11:11.997Z,9.94
2023-01-18T01:13:41.825Z,9.86
2023-01-18T01:16:10.327Z,9.79
2023-01-18T01:18:37.045Z,9.92
2023-01-18T01:21:04.222Z,10.00
2023-01-18T01:23:30.946Z,9.97
2023-01-18T01:25:58.325Z,9.99
2023-01-18T01:28:26.388Z,9.95
2023-01-18T01:30:57.350Z,9.91
2023-01-18T01:33:24.246Z,9.89
2023-01-18T01:35:55.908Z,9.81
2023-01-18T01:38:22.602Z,9.85
2023-01-18T01:40:56.893Z,9.79
2023-01-18T01:43:40.730Z,9.64
2023-01-18T01:46:19.767Z,9.52
2023-01-18T01:48:47.976Z,9.51
2023-01-18T01:51:16.609Z,9.52
2023-01-18T01:53:43.523Z,9.50
2023-01-18T01:56:11.545Z,9.42
2023-01-18T01:58:41.232Z,9.46
2023-01-18T02:01:08.099Z,9.47
2023-01-18T02:03:40.335Z,9.50
2023-01-18T02:06:15.378Z,9.51
2023-01-18T02:08:44.395Z,9.56
2023-01-18T02:11:11.907Z,9.63
2023-01-18T02:13:40.063Z,9.74
2023-01-18T02:16:15.200Z,9.63
2023-01-18T02:18:49.883Z,9.72
2023-01-18T02:21:18.389Z,9.64
2023-01-18T02:24:27.364Z,9.67
2023-01-18T02:27:05.622Z,9.81
2023-01-18T02:30:00.924Z,9.76
2023-01-18T02:32:38.973Z,9.86
2023-01-18T02:35:11.002Z,9.91
2023-01-18T02:37:48.293Z,9.89
2023-01-18T02:40:24.813Z,9.71
2023-01-18T02:42:52.464Z,9.87
2023-01-18T02:45:26.000Z,9.87
2023-01-18T02:47:54.298Z,9.94
2023-01-18T02:50:23.059Z,9.94
2023-01-18T02:52:49.736Z,9.95
2023-01-18T02:55:26.578Z,9.93
2023-01-18T02:58:02.719Z,9.71
2023-01-18T03:00:37.052Z,9.84
2023-01-18T03:03:08.001Z,9.77
2023-01-18T03:05:37.612Z,9.79
2023-01-18T03:08:10.087Z,9.90
2023-01-18T03:10:45.266Z,9.90
2023-01-18T03:13:19.701Z,9.65
2023-01-18T03:15:51.828Z,9.57
2023-01-18T03:18:26.357Z,9.60
2023-01-18T03:20:54.507Z,9.53
2023-01-18T03:23:26.280Z,9.45
2023-01-18T03:25:59.354Z,9.49
2023-01-18T03:28:32.266Z,9.57
2023-01-18T03:31:05.220Z,9.61
2023-01-18T03:33:36.141Z,9.50
2023-01-18T03:36:04.549Z,9.48
2023-01-18T03:38:33.899Z,9.44
2023-01-18T03:41:02.763Z,9.41
2023-01-18T03:43:33.660Z,9.59
2023-01-18T03:46:02.445Z,9.57
2023-01-18T03:48:29.444Z,9.67
2023-01-18T03:51:05.035Z,9.67
2023-01-18T03:53:38.112Z,9.58
2023-01-18T03:56:10.529Z,9.62
2023-01-18T03:58:37.258Z,9.55
2023-01-18T04:01:05.927Z,9.86
2023-01-18T04:03:33.135Z,9.64
2023-01-18T04:06:01.755Z,9.69
2023-01-18T04:08:28.461Z,9.58
2023-01-18T04:10:55.171Z,9.59
2023-01-18T04:13:22.013Z,9.62
2023-01-18T04:15:48.731Z,9.72
2023-01-18T04:18:16.855Z,9.65
2023-01-18T04:20:43.599Z,9.68
2023-01-18T04:23:10.300Z,9.72
2023-01-18T04:25:37.051Z,9.84
2023-01-18T04:28:04.000Z,9.78
2023-01-18T04:30:30.694Z,9.72
2023-01-18T04:32:57.726Z,9.80
2023-01-18T04:35:26.009Z,9.84
2023-01-18T04:37:53.104Z,9.89
2023-01-18T04:40:19.986Z,9.90
2023-01-18T04:42:54.970Z,9.90
2023-01-18T04:45:21.700Z,9.85
2023-01-18T04:47:48.406Z,9.86
2023-01-18T04:50:15.183Z,9.87
2023-01-18T04:52:43.351Z,9.87
2023-01-18T04:55:10.485Z,9.82
2023-01-18T04:57:39.882Z,9.86
2023-01-18T05:00:08.897Z,9.85
2023-01-18T05:02:35.748Z,9.97
2023-01-18T05:05:02.499Z,9.97
2023-01-18T05:07:29.220Z,9.98
2023-01-18T05:09:57.304Z,10.03
2023-01-18T05:12:24.089Z,9.97
2023-01-18T05:14:50.773Z,9.82
2023-01-18T05:17:17.454Z,9.87
2023-01-18T05:19:44.169Z,9.83
2023-01-18T05:22:10.884Z,9.71
2023-01-18T05:24:37.606Z,9.65
2023-01-18T05:27:05.697Z,9.60
2023-01-18T05:29:32.412Z,9.75
2023-01-18T05:31:59.075Z,9.89
2023-01-18T05:34:28.730Z,9.86
2023-01-18T05:36:55.461Z,9.87
2023-01-18T05:39:22.161Z,9.98
2023-01-18T05:41:48.944Z,10.02
2023-01-18T05:44:17.024Z,10.03
2023-01-18T05:46:43.714Z,9.97
2023-01-18T05:49:10.375Z,9.98
2023-01-18T05:51:37.043Z,10.03
2023-01-18T05:54:03.832Z,10.05
2023-01-18T05:56:30.519Z,9.93
2023-01-18T05:58:57.482Z,9.86
2023-01-18T06:01:25.700Z,9.76
2023-01-18T06:03:52.417Z,9.76
2023-01-18T06:06:20.263Z,9.73
2023-01-18T06:08:46.966Z,9.67
2023-01-18T06:11:13.624Z,9.56
2023-01-18T06:13:40.306Z,9.48
2023-01-18T06:16:07.546Z,9.53
2023-01-18T06:18:35.658Z,9.55
2023-01-18T06:21:03.032Z,9.55
2023-01-18T06:23:30.562Z,9.50
2023-01-18T06:25:57.738Z,9.52
2023-01-18T06:28:24.648Z,9.53
2023-01-18T06:30:53.051Z,9.59
2023-01-18T06:33:19.758Z,9.63
2023-01-18T06:35:47.921Z,9.74
2023-01-18T06:38:14.772Z,9.78
2023-01-18T06:40:41.699Z,9.98
2023-01-18T06:43:08.615Z,10.02
2023-01-18T06:45:35.796Z,10.09
2023-01-18T06:48:02.481Z,10.06
2023-01-18T06:50:29.163Z,9.99
2023-01-18T06:52:57.570Z,9.98
2023-01-18T06:55:24.401Z,9.91
2023-01-18T06:57:51.092Z,9.92
2023-01-18T07:00:18.570Z,9.82
2023-01-18T07:02:45.255Z,9.85
2023-01-18T07:05:12.046Z,9.71
2023-01-18T07:07:38.719Z,9.69
2023-01-18T07:10:08.135Z,9.68
2023-01-18T07:12:34.865Z,9.63
2023-01-18T07:15:09.910Z,9.56
2023-01-18T07:17:47.118Z,9.57
2023-01-18T07:20:14.037Z,9.53
2023-01-18T07:22:40.816Z,9.47
2023-01-18T07:25:09.622Z,9.47
2023-01-18T07:27:36.351Z,9.42
2023-01-18T07:30:03.167Z,9.44
2023-01-18T07:32:29.985Z,9.57
2023-01-18T07:34:59.356Z,9.55
2023-01-18T07:37:26.152Z,9.58
2023-01-18T07:39:52.935Z,9.47
2023-01-18T07:42:20.972Z,9.47
2023-01-18T07:44:47.730Z,9.31
2023-01-18T07:47:14.412Z,9.20
2023-01-18T07:49:41.071Z,9.28
2023-01-18T07:52:07.766Z,9.25
2023-01-18T07:54:34.748Z,9.34
2023-01-18T07:57:01.726Z,9.35
2023-01-18T07:59:29.853Z,9.41
2023-01-18T08:01:56.563Z,9.34
2023-01-18T08:04:23.391Z,9.32
2023-01-18T08:06:50.231Z,9.32
2023-01-18T08:09:17.125Z,9.38
2023-01-18T08:11:43.823Z,9.43
2023-01-18T08:14:10.479Z,9.38
2023-01-18T08:16:38.575Z,9.43
2023-01-18T08:19:05.282Z,9.42
2023-01-18T08:21:31.951Z,9.47
2023-01-18T08:23:58.679Z,9.62
2023-01-18T08:26:25.527Z,9.64
2023-01-18T08:28:52.214Z,9.69
2023-01-18T08:31:21.245Z,9.68
2023-01-18T08:33:49.549Z,9.65
2023-01-18T08:36:18.349Z,9.75
2023-01-18T08:38:47.817Z,9.77
2023-01-18T08:41:14.486Z,9.92
2023-01-18T08:43:41.174Z,9.94
2023-01-18T08:46:07.872Z,10.01
2023-01-18T08:48:34.826Z,9.87
2023-01-18T08:51:03.469Z,9.79
2023-01-18T08:53:31.366Z,9.77
2023-01-18T08:55:58.405Z,9.81
2023-01-18T08:58:25.360Z,9.90
2023-01-18T09:00:52.424Z,9.86
2023-01-18T09:03:20.530Z,9.92
2023-01-18T09:05:47.286Z,9.96
2023-01-18T09:08:15.509Z,9.91
2023-01-18T09:10:42.210Z,9.89
2023-01-18T09:13:08.861Z,9.84
2023-01-18T09:15:35.625Z,9.82
2023-01-18T09:18:02.310Z,9.83
2023-01-18T09:20:29.000Z,9.92
2023-01-18T09:22:58.719Z,9.95
2023-01-18T09:25:26.967Z,9.96
2023-01-18T09:27:53.623Z,9.86
2023-01-18T09:30:20.304Z,9.78
2023-01-18T09:32:46.925Z,9.76
2023-01-18T09:35:14.349Z,9.74
2023-01-18T09:37:41.106Z,9.69
2023-01-18T09:40:16.297Z,9.51
2023-01-18T09:42:45.653Z,9.40
2023-01-18T09:45:30.320Z,9.37
2023-01-18T09:48:02.367Z,9.39
2023-01-18T09:50:32.770Z,9.47
2023-01-18T09:53:14.007Z,9.51
2023-01-18T09:55:50.321Z,9.56
2023-01-18T09:58:33.881Z,9.64
2023-01-18T10:01:05.143Z,9.72
2023-01-18T10:03:37.737Z,9.73
2023-01-18T10:06:12.973Z,9.77
2023-01-18T10:08:49.593Z,9.92
2023-01-18T10:11:22.343Z,9.96
2023-01-18T10:14:00.909Z,9.79
2023-01-18T10:16:28.155Z,9.84
2023-01-18T10:18:58.323Z,9.95
2023-01-18T10:21:47.560Z,10.08
2023-01-18T10:24:29.025Z,10.28
2023-01-18T10:27:08.499Z,10.41
2023-01-18T10:29:54.913Z,10.53
2023-01-18T10:32:26.266Z,10.73
2023-01-18T10:34:53.496Z,10.96
2023-01-18T10:37:31.140Z,11.14
2023-01-18T10:40:00.750Z,11.35
2023-01-18T10:42:34.915Z,11.50
2023-01-18T10:45:03.658Z,11.78
2023-01-18T10:47:30.403Z,11.94
2023-01-18T10:49:59.452Z,12.04
2023-01-18T10:52:28.785Z,12.23
2023-01-18T10:54:57.950Z,12.12
2023-01-18T10:57:28.912Z,12.00
2023-01-18T10:59:56.596Z,12.37
2023-01-18T11:02:31.915Z,12.59
2023-01-18T11:05:15.350Z,12.40
2023-01-18T11:07:42.808Z,12.20
2023-01-18T11:10:24.281Z,11.88
2023-01-18T11:12:50.985Z,11.72
2023-01-18T11:15:26.390Z,11.50
2023-01-18T11:18:03.317Z,11.39
2023-01-18T11:20:33.201Z,11.13
2023-01-18T11:23:03.391Z,11.17
2023-01-18T11:25:37.465Z,11.08
2023-01-18T11:28:05.611Z,11.15
2023-01-18T11:30:33.835Z,11.47
2023-01-18T11:33:03.106Z,12.05
2023-01-18T11:35:33.844Z,12.21
2023-01-18T11:38:05.305Z,12.16
2023-01-18T11:40:33.591Z,12.27
2023-01-18T11:43:05.778Z,12.39
2023-01-18T11:45:37.363Z,12.72
2023-01-18T11:48:12.564Z,13.15
2023-01-18T11:50:42.588Z,13.78
2023-01-18T11:53:20.180Z,14.02
2023-01-18T11:55:51.592Z,13.97
2023-01-18T11:58:24.952Z,14.21
2023-01-18T12:01:04.460Z,14.35
2023-01-18T12:03:46.617Z,14.64
2023-01-18T12:06:25.201Z,14.99
2023-01-18T12:09:09.790Z,15.21
2023-01-18T12:11:52.363Z,15.14
2023-01-18T12:14:34.313Z,15.42
2023-01-18T12:17:22.642Z,15.75
2023-01-18T12:20:01.419Z,15.82
2023-01-18T12:22:53.157Z,15.74
2023-01-18T12:25:35.250Z,15.36
2023-01-18T12:28:14.415Z,15.09
2023-01-18T12:30:59.609Z,14.91
2023-01-18T12:33:43.708Z,14.70
2023-01-18T12:36:46.579Z,14.26
2023-01-18T12:39:37.655Z,14.37
2023-01-18T12:42:05.836Z,14.13
2023-01-18T12:44:50.333Z,13.99
2023-01-18T12:47:31.372Z,14.07
2023-01-18T12:50:00.146Z,14.16
2023-01-18T12:52:32.416Z,14.29
2023-01-18T12:55:03.550Z,14.20
2023-01-18T12:57:30.650Z,14.06
2023-01-18T13:00:02.698Z,14.01
2023-01-18T13:02:33.360Z,13.94
2023-01-18T13:05:04.144Z,13.87
2023-01-18T13:07:37.568Z,13.77
2023-01-18T13:10:06.835Z,13.68
2023-01-18T13:12:34.498Z,13.53
2023-01-18T13:15:08.397Z,13.42
2023-01-18T13:17:41.277Z,13.24
2023-01-18T13:20:17.104Z,13.00
2023-01-18T13:22:59.349Z,12.98
2023-01-18T13:25:41.270Z,13.22
2023-01-18T13:28:17.548Z,13.51
2023-01-18T13:30:51.957Z,13.74
2023-01-18T13:33:21.886Z,13.77
2023-01-18T13:35:51.540Z,13.81
2023-01-18T13:38:36.214Z,13.74
2023-01-18T13:41:09.935Z,13.57
2023-01-18T13:44:11.976Z,13.34
2023-01-18T13:46:38.740Z,13.30
2023-01-18T13:49:37.618Z,13.28
2023-01-18T13:52:31.133Z,13.28
2023-01-18T13:55:02.625Z,13.26
2023-01-18T13:57:31.978Z,13.12
2023-01-18T13:59:59.685Z,12.92
2023-01-18T14:02:30.133Z,12.75
2023-01-18T14:05:04.409Z,12.59
2023-01-18T14:07:42.658Z,12.51
2023-01-18T14:10:28.062Z,12.58
2023-01-18T14:12:56.178Z,12.81
2023-01-18T14:15:25.805Z,13.01
2023-01-18T14:17:58.549Z,13.08
2023-01-18T14:20:52.093Z,13.12
2023-01-18T14:23:52.542Z,13.18
2023-01-18T14:26:22.020Z,13.14
2023-01-18T14:28:57.263Z,13.35
2023-01-18T14:31:29.505Z,13.49
2023-01-18T14:33:56.369Z,13.41
2023-01-18T14:36:25.202Z,13.50
2023-01-18T14:39:08.617Z,14.17
2023-01-18T14:41:36.775Z,14.23
2023-01-18T14:44:03.816Z,14.27
2023-01-18T14:46:30.625Z,14.46
2023-01-18T14:48:59.775Z,14.76
2023-01-18T14:51:28.258Z,15.00
2023-01-18T14:53:57.913Z,15.32
2023-01-18T14:56:27.038Z,15.65
2023-01-18T14:58:57.223Z,15.95
2023-01-18T15:01:28.486Z,16.38
2023-01-18T15:03:56.150Z,16.78
2023-01-18T15:06:33.285Z,16.99
2023-01-18T15:09:01.301Z,16.83
2023-01-18T15:11:28.349Z,16.40
2023-01-18T15:13:57.923Z,16.24
2023-01-18T15:16:28.631Z,16.15
2023-01-18T15:18:56.914Z,16.21
2023-01-18T15:21:27.983Z,16.00
2023-01-18T15:24:02.645Z,15.81
2023-01-18T15:26:44.207Z,15.46
2023-01-18T15:29:19.635Z,14.91
2023-01-18T15:31:50.145Z,14.50
2023-01-18T15:34:22.052Z,14.16
2023-01-18T15:36:49.178Z,13.82
2023-01-18T15:39:15.943Z,13.56
2023-01-18T15:41:43.896Z,13.44
2023-01-18T15:44:46.481Z,13.18
2023-01-18T15:47:21.916Z,13.21
2023-01-18T15:49:50.899Z,13.16
2023-01-18T15:52:39.765Z,13.00
2023-01-18T15:55:08.964Z,13.00
2023-01-18T15:57:36.518Z,12.81
2023-01-18T16:00:05.958Z,12.70
2023-01-18T16:02:32.862Z,12.69
2023-01-18T16:05:10.186Z,12.59
2023-01-18T16:07:38.858Z,12.64
2023-01-18T16:10:24.228Z,12.61
2023-01-18T16:12:50.863Z,12.65
2023-01-18T16:15:27.537Z,12.64
2023-01-18T16:18:01.689Z,12.53
2023-01-18T16:20:29.809Z,12.52
2023-01-18T16:23:03.074Z,12.46
2023-01-18T16:25:29.953Z,12.49
2023-01-18T16:27:57.045Z,12.49
2023-01-18T16:30:33.840Z,12.42
2023-01-18T16:33:07.471Z,12.33
2023-01-18T16:35:34.126Z,12.46
2023-01-18T16:38:01.081Z,12.46
2023-01-18T16:40:28.675Z,12.39
2023-01-18T16:42:58.952Z,12.40
2023-01-18T16:45:27.677Z,12.51
2023-01-18T16:47:54.364Z,12.54
2023-01-18T16:50:21.672Z,12.58
2023-01-18T16:52:48.366Z,12.63
2023-01-18T16:55:16.379Z,12.64
2023-01-18T16:57:43.687Z,12.57
2023-01-18T17:00:16.741Z,12.47
2023-01-18T17:02:44.977Z,12.47
2023-01-18T17:05:12.724Z,12.38
2023-01-18T17:07:39.573Z,12.27
2023-01-18T17:10:17.465Z,12.35
2023-01-18T17:12:44.091Z,12.48
2023-01-18T17:15:11.355Z,12.36
2023-01-18T17:17:38.064Z,12.27
2023-01-18T17:20:16.212Z,12.22
2023-01-18T17:22:45.218Z,12.12
2023-01-18T17:25:14.843Z,12.15
2023-01-18T17:27:41.469Z,12.17
2023-01-18T17:30:09.847Z,12.22
2023-01-18T17:32:36.819Z,12.35
2023-01-18T17:35:06.004Z,12.37
2023-01-18T17:37:35.415Z,12.39
2023-01-18T17:40:16.459Z,12.18
2023-01-18T17:42:44.226Z,11.99
2023-01-18T17:45:11.029Z,11.90
2023-01-18T17:47:37.668Z,11.94
2023-01-18T17:50:05.708Z,11.91
2023-01-18T17:52:33.741Z,11.83
2023-01-18T17:55:00.422Z,11.83
2023-01-18T17:57:27.137Z,11.76
2023-01-18T17:59:53.997Z,11.63
2023-01-18T18:02:20.849Z,11.62
2023-01-18T18:04:47.677Z,11.55
2023-01-18T18:07:14.325Z,11.65
2023-01-18T18:09:42.417Z,11.77
2023-01-18T18:12:10.137Z,11.81
2023-01-18T18:14:37.170Z,11.88
2023-01-18T18:17:05.658Z,11.84
2023-01-18T18:19:33.055Z,11.90
2023-01-18T18:22:00.321Z,11.87
2023-01-18T18:24:27.217Z,11.76
2023-01-18T18:26:55.414Z,11.65
2023-01-18T18:29:22.072Z,11.56
2023-01-18T18:31:48.883Z,11.38
2023-01-18T18:34:15.653Z,11.39
2023-01-18T18:36:42.399Z,11.40
2023-01-18T18:39:09.044Z,11.34
2023-01-18T18:41:36.655Z,11.27
2023-01-18T18:44:04.832Z,11.23
2023-01-18T18:46:31.581Z,11.29
2023-01-18T18:48:58.378Z,11.24
2023-01-18T18:51:25.387Z,11.18
2023-01-18T18:53:52.089Z,11.10
2023-01-18T18:56:18.997Z,11.12
2023-01-18T18:58:47.511Z,11.01
2023-01-18T19:01:21.439Z,11.11
2023-01-18T19:03:48.834Z,11.15
2023-01-18T19:06:15.996Z,11.12
2023-01-18T19:08:42.781Z,11.03
2023-01-18T19:11:09.557Z,11.03
2023-01-18T19:13:36.283Z,11.03
2023-01-18T19:16:03.373Z,11.02
2023-01-18T19:18:32.506Z,10.77
2023-01-18T19:21:02.348Z,10.64
2023-01-18T19:23:29.208Z,10.53
2023-01-18T19:25:56.055Z,10.52
2023-01-18T19:28:22.694Z,10.56
2023-01-18T19:30:49.420Z,10.46
2023-01-18T19:33:16.163Z,10.38
2023-01-18T19:35:45.989Z,10.33
2023-01-18T19:38:13.179Z,10.37
2023-01-18T19:40:39.859Z,10.49
2023-01-18T19:43:06.465Z,10.66
2023-01-18T19:45:33.317Z,10.75
2023-01-18T19:48:00.480Z,10.88
2023-01-18T19:50:28.799Z,10.98
2023-01-18T19:52:56.994Z,11.06
2023-01-18T19:55:26.630Z,11.15
2023-01-18T19:57:55.706Z,11.19
2023-01-18T20:00:22.524Z,11.24
2023-01-18T20:02:49.478Z,11.25
2023-01-18T20:05:16.431Z,11.31
2023-01-18T20:07:43.110Z,11.33
2023-01-18T20:10:11.862Z,11.33
2023-01-18T20:12:38.536Z,11.33
2023-01-18T20:15:06.381Z,11.22
2023-01-18T20:17:33.106Z,11.15
2023-01-18T20:19:59.835Z,11.13
2023-01-18T20:22:26.654Z,11.14
2023-01-18T20:24:53.311Z,11.16
2023-01-18T20:27:21.338Z,11.18
2023-01-18T20:29:48.108Z,11.11
2023-01-18T20:32:17.910Z,11.11
2023-01-18T20:34:45.429Z,11.14
2023-01-18T20:37:12.554Z,11.08
2023-01-18T20:39:39.443Z,11.06
2023-01-18T20:42:06.151Z,10.98
2023-01-18T20:44:34.417Z,10.89
2023-01-18T20:47:02.007Z,10.86
2023-01-18T20:49:43.974Z,10.83
2023-01-18T20:52:10.770Z,10.87
2023-01-18T20:54:37.704Z,10.81
2023-01-18T20:57:04.838Z,10.79
2023-01-18T20:59:31.521Z,10.78
2023-01-18T21:01:59.821Z,10.77
2023-01-18T21:04:26.909Z,10.71
2023-01-18T21:06:53.679Z,10.68
2023-01-18T21:09:20.348Z,10.53
2023-01-18T21:11:47.019Z,10.43
2023-01-18T21:14:13.689Z,10.38
2023-01-18T21:16:40.465Z,10.29
2023-01-18T21:19:08.949Z,10.20
2023-01-18T21:21:35.643Z,10.12
2023-01-18T21:24:02.357Z,10.09
2023-01-18T21:26:28.997Z,10.00
2023-01-18T21:28:55.664Z,9.86
2023-01-18T21:31:22.509Z,9.85
2023-01-18T21:33:49.250Z,9.79
2023-01-18T21:36:18.195Z,9.74
2023-01-18T21:38:45.005Z,9.70
2023-01-18T21:41:11.984Z,9.64
2023-01-18T21:43:38.669Z,9.42
2023-01-18T21:46:07.451Z,9.34
2023-01-18T21:48:34.098Z,9.37
2023-01-18T21:51:02.192Z,9.27
2023-01-18T21:53:30.213Z,9.09
2023-01-18T21:55:56.880Z,8.96
2023-01-18T21:58:23.538Z,8.92
2023-01-18T22:00:50.251Z,8.78
2023-01-18T22:03:16.905Z,8.79
2023-01-18T22:05:43.568Z,8.75
2023-01-18T22:08:10.290Z,8.63
2023-01-18T22:10:38.441Z,8.66
2023-01-18T22:13:05.291Z,8.60
2023-01-18T22:15:31.937Z,8.60
2023-01-18T22:17:58.710Z,8.60
2023-01-18T22:20:25.677Z,8.69
2023-01-18T22:22:52.347Z,8.59
2023-01-18T22:25:18.988Z,8.51
2023-01-18T22:27:47.093Z,8.40
2023-01-18T22:30:13.967Z,8.42
2023-01-18T22:32:40.649Z,8.43
2023-01-18T22:35:07.763Z,8.39
2023-01-18T22:37:34.464Z,8.33
2023-01-18T22:40:01.157Z,8.41
2023-01-18T22:42:27.844Z,8.40
2023-01-18T22:44:55.874Z,8.39
2023-01-18T22:47:22.564Z,8.40
2023-01-18T22:49:49.320Z,8.44
2023-01-18T22:52:16.038Z,8.42
2023-01-18T22:54:42.714Z,8.34
2023-01-18T22:57:09.552Z,8.28
2023-01-18T22:59:36.234Z,8.38
2023-01-18T23:02:04.328Z,8.41
2023-01-18T23:04:31.277Z,8.33
2023-01-18T23:06:58.012Z,8.34
2023-01-18T23:09:24.787Z,8.51
2023-01-18T23:11:51.691Z,8.50
2023-01-18T23:14:18.636Z,8.43
2023-01-18T23:16:45.405Z,8.32
2023-01-18T23:19:13.539Z,8.24
2023-01-18T23:21:40.222Z,8.12
2023-01-18T23:24:07.121Z,8.05
2023-01-18T23:26:33.819Z,7.93
2023-01-18T23:29:00.503Z,7.95
2023-01-18T23:31:27.232Z,7.90
2023-01-18T23:33:54.006Z,7.87
2023-01-18T23:36:22.093Z,7.86
2023-01-18T23:38:48.791Z,7.82
2023-01-18T23:41:15.543Z,7.82
2023-01-18T23:43:42.278Z,7.84
2023-01-18T23:46:08.988Z,7.88
2023-01-18T23:48:35.689Z,7.83
2023-01-18T23:51:03.347Z,7.79
2023-01-18T23:53:31.394Z,7.79
2023-01-18T23:55:59.296Z,7.83
2023-01-18T23:58:26.426Z,8.11
